sensor_id;sensor_type;location;lat;lon;timestamp;P1;durP1;ratioP1;P2;durP2;ratioP2
7703;SDS011;3894;49.700;10.770;2023-12-20T00:00:26;11.18;;;4.93;;
7703;SDS011;3894;49.700;10.770;2023-12-20T00:02:51;13.55;;;5.68;;
7703;SDS011;3894;49.700;10.770;2023-12-20T00:05:17;10.85;;;4.10;;
7703;SDS011;3894;49.700;10.770;2023-12-20T00:07:43;11.40;;;4.20;;
7703;SDS011;3894;49.700;10.770;2023-12-20T00:10:08;10.32;;;4.00;;
7703;SDS011;3894;49.700;10.770;2023-12-20T00:12:35;10.57;;;4.13;;
7703;SDS011;3894;49.700;10.770;2023-12-20T00:15:00;9.13;;;4.53;;
7703;SDS011;3894;49.700;10.770;2023-12-20T00:17:26;11.20;;;4.40;;
7703;SDS011;3894;49.700;10.770;2023-12-20T00:19:51;7.45;;;3.75;;
7703;SDS011;3894;49.700;10.770;2023-12-20T00:22:17;9.63;;;3.70;;
7703;SDS011;3894;49.700;10.770;2023-12-20T00:24:42;9.45;;;4.13;;
7703;SDS011;3894;49.700;10.770;2023-12-20T00:27:08;10.73;;;4.07;;
7703;SDS011;3894;49.700;10.770;2023-12-20T00:29:33;8.43;;;4.22;;
7703;SDS011;3894;49.700;10.770;2023-12-20T00:31:59;8.93;;;3.63;;
7703;SDS011;3894;49.700;10.770;2023-12-20T00:34:24;7.80;;;3.20;;
7703;SDS011;3894;49.700;10.770;2023-12-20T00:36:50;8.48;;;2.95;;
7703;SDS011;3894;49.700;10.770;2023-12-20T00:39:16;8.52;;;3.03;;
7703;SDS011;3894;49.700;10.770;2023-12-20T00:41:41;7.45;;;3.13;;
7703;SDS011;3894;49.700;10.770;2023-12-20T00:44:07;7.38;;;2.53;;
7703;SDS011;3894;49.700;10.770;2023-12-20T00:46:33;6.75;;;2.45;;
7703;SDS011;3894;49.700;10.770;2023-12-20T00:48:58;7.55;;;2.58;;
7703;SDS011;3894;49.700;10.770;2023-12-20T00:51:24;8.00;;;2.10;;
7703;SDS011;3894;49.700;10.770;2023-12-20T00:53:50;7.55;;;2.58;;
7703;SDS011;3894;49.700;10.770;2023-12-20T00:56:19;5.93;;;2.05;;
7703;SDS011;3894;49.700;10.770;2023-12-20T00:58:45;6.25;;;2.25;;
7703;SDS011;3894;49.700;10.770;2023-12-20T01:01:10;6.30;;;2.53;;
7703;SDS011;3894;49.700;10.770;2023-12-20T01:03:36;5.28;;;1.77;;
7703;SDS011;3894;49.700;10.770;2023-12-20T01:06:02;6.18;;;2.20;;
7703;SDS011;3894;49.700;10.770;2023-12-20T01:08:29;6.53;;;1.90;;
7703;SDS011;3894;49.700;10.770;2023-12-20T01:10:55;4.90;;;1.77;;
7703;SDS011;3894;49.700;10.770;2023-12-20T01:13:20;6.00;;;2.05;;
7703;SDS011;3894;49.700;10.770;2023-12-20T01:15:46;5.93;;;1.27;;
7703;SDS011;3894;49.700;10.770;2023-12-20T01:18:13;4.95;;;1.60;;
7703;SDS011;3894;49.700;10.770;2023-12-20T01:20:38;3.35;;;1.00;;
7703;SDS011;3894;49.700;10.770;2023-12-20T01:23:04;4.95;;;1.20;;
7703;SDS011;3894;49.700;10.770;2023-12-20T01:25:29;4.80;;;1.40;;
7703;SDS011;3894;49.700;10.770;2023-12-20T01:27:55;5.45;;;1.88;;
7703;SDS011;3894;49.700;10.770;2023-12-20T01:30:20;5.95;;;1.70;;
7703;SDS011;3894;49.700;10.770;2023-12-20T01:32:46;4.53;;;1.08;;
7703;SDS011;3894;49.700;10.770;2023-12-20T01:35:11;4.03;;;1.20;;
7703;SDS011;3894;49.700;10.770;2023-12-20T01:37:38;5.18;;;1.58;;
7703;SDS011;3894;49.700;10.770;2023-12-20T01:40:06;4.03;;;1.30;;
7703;SDS011;3894;49.700;10.770;2023-12-20T01:42:33;3.85;;;0.80;;
7703;SDS011;3894;49.700;10.770;2023-12-20T01:44:58;4.82;;;1.10;;
7703;SDS011;3894;49.700;10.770;2023-12-20T01:47:24;5.00;;;1.63;;
7703;SDS011;3894;49.700;10.770;2023-12-20T01:49:52;4.05;;;1.48;;
7703;SDS011;3894;49.700;10.770;2023-12-20T01:52:18;4.60;;;1.65;;
7703;SDS011;3894;49.700;10.770;2023-12-20T01:54:46;5.00;;;1.33;;
7703;SDS011;3894;49.700;10.770;2023-12-20T01:57:12;2.85;;;0.80;;
7703;SDS011;3894;49.700;10.770;2023-12-20T01:59:39;3.63;;;0.98;;
7703;SDS011;3894;49.700;10.770;2023-12-20T02:02:05;3.72;;;1.08;;
7703;SDS011;3894;49.700;10.770;2023-12-20T02:04:32;4.22;;;0.88;;
7703;SDS011;3894;49.700;10.770;2023-12-20T02:06:57;1.83;;;0.57;;
7703;SDS011;3894;49.700;10.770;2023-12-20T02:09:24;4.15;;;0.75;;
7703;SDS011;3894;49.700;10.770;2023-12-20T02:11:49;2.88;;;0.60;;
7703;SDS011;3894;49.700;10.770;2023-12-20T02:14:15;3.60;;;1.13;;
7703;SDS011;3894;49.700;10.770;2023-12-20T02:16:41;2.78;;;0.60;;
7703;SDS011;3894;49.700;10.770;2023-12-20T02:19:13;3.75;;;0.40;;
7703;SDS011;3894;49.700;10.770;2023-12-20T02:21:40;2.63;;;0.55;;
7703;SDS011;3894;49.700;10.770;2023-12-20T02:24:05;3.33;;;0.70;;
7703;SDS011;3894;49.700;10.770;2023-12-20T02:26:34;2.33;;;0.50;;
7703;SDS011;3894;49.700;10.770;2023-12-20T02:29:00;3.80;;;0.80;;
7703;SDS011;3894;49.700;10.770;2023-12-20T02:31:26;4.20;;;0.50;;
7703;SDS011;3894;49.700;10.770;2023-12-20T02:33:52;2.58;;;0.57;;
7703;SDS011;3894;49.700;10.770;2023-12-20T02:36:18;2.53;;;0.57;;
7703;SDS011;3894;49.700;10.770;2023-12-20T02:38:44;2.65;;;0.50;;
7703;SDS011;3894;49.700;10.770;2023-12-20T02:41:10;1.70;;;0.60;;
7703;SDS011;3894;49.700;10.770;2023-12-20T02:43:36;1.83;;;0.30;;
7703;SDS011;3894;49.700;10.770;2023-12-20T02:46:02;2.28;;;0.30;;
7703;SDS011;3894;49.700;10.770;2023-12-20T02:48:28;1.83;;;0.30;;
7703;SDS011;3894;49.700;10.770;2023-12-20T02:50:53;2.72;;;0.40;;
7703;SDS011;3894;49.700;10.770;2023-12-20T02:53:20;1.55;;;0.25;;
7703;SDS011;3894;49.700;10.770;2023-12-20T02:55:45;1.98;;;0.55;;
7703;SDS011;3894;49.700;10.770;2023-12-20T02:58:11;2.13;;;0.50;;
7703;SDS011;3894;49.700;10.770;2023-12-20T03:00:36;3.20;;;0.95;;
7703;SDS011;3894;49.700;10.770;2023-12-20T03:03:02;2.28;;;0.30;;
7703;SDS011;3894;49.700;10.770;2023-12-20T03:05:28;1.98;;;0.38;;
7703;SDS011;3894;49.700;10.770;2023-12-20T03:07:54;2.30;;;0.40;;
7703;SDS011;3894;49.700;10.770;2023-12-20T03:10:19;2.80;;;0.40;;
7703;SDS011;3894;49.700;10.770;2023-12-20T03:12:45;3.38;;;0.50;;
7703;SDS011;3894;49.700;10.770;2023-12-20T03:15:12;2.30;;;0.60;;
7703;SDS011;3894;49.700;10.770;2023-12-20T03:17:38;1.52;;;0.30;;
7703;SDS011;3894;49.700;10.770;2023-12-20T03:20:03;1.92;;;0.60;;
7703;SDS011;3894;49.700;10.770;2023-12-20T03:22:29;2.03;;;0.40;;
7703;SDS011;3894;49.700;10.770;2023-12-20T03:24:55;2.08;;;0.40;;
7703;SDS011;3894;49.700;10.770;2023-12-20T03:27:21;2.78;;;0.30;;
7703;SDS011;3894;49.700;10.770;2023-12-20T03:29:46;1.95;;;0.28;;
7703;SDS011;3894;49.700;10.770;2023-12-20T03:32:12;1.85;;;0.30;;
7703;SDS011;3894;49.700;10.770;2023-12-20T03:34:37;2.05;;;0.52;;
7703;SDS011;3894;49.700;10.770;2023-12-20T03:37:03;1.58;;;0.50;;
7703;SDS011;3894;49.700;10.770;2023-12-20T03:39:29;2.60;;;0.47;;
7703;SDS011;3894;49.700;10.770;2023-12-20T03:41:54;1.83;;;0.32;;
7703;SDS011;3894;49.700;10.770;2023-12-20T03:44:20;2.00;;;0.30;;
7703;SDS011;3894;49.700;10.770;2023-12-20T03:46:46;1.98;;;0.43;;
7703;SDS011;3894;49.700;10.770;2023-12-20T03:49:11;2.35;;;0.40;;
7703;SDS011;3894;49.700;10.770;2023-12-20T03:51:37;2.47;;;0.35;;
7703;SDS011;3894;49.700;10.770;2023-12-20T03:54:03;2.17;;;0.20;;
7703;SDS011;3894;49.700;10.770;2023-12-20T03:56:28;1.92;;;0.38;;
7703;SDS011;3894;49.700;10.770;2023-12-20T03:58:54;2.30;;;0.52;;
7703;SDS011;3894;49.700;10.770;2023-12-20T04:01:19;1.42;;;0.40;;
7703;SDS011;3894;49.700;10.770;2023-12-20T04:03:46;1.83;;;0.40;;
7703;SDS011;3894;49.700;10.770;2023-12-20T04:06:16;2.05;;;0.40;;
7703;SDS011;3894;49.700;10.770;2023-12-20T04:08:42;1.95;;;0.70;;
7703;SDS011;3894;49.700;10.770;2023-12-20T04:11:08;2.42;;;0.50;;
7703;SDS011;3894;49.700;10.770;2023-12-20T04:13:33;1.08;;;0.17;;
7703;SDS011;3894;49.700;10.770;2023-12-20T04:15:59;3.58;;;0.52;;
7703;SDS011;3894;49.700;10.770;2023-12-20T04:18:25;1.77;;;0.30;;
7703;SDS011;3894;49.700;10.770;2023-12-20T04:20:50;2.25;;;0.40;;
7703;SDS011;3894;49.700;10.770;2023-12-20T04:23:16;1.75;;;0.30;;
7703;SDS011;3894;49.700;10.770;2023-12-20T04:25:42;2.22;;;0.75;;
7703;SDS011;3894;49.700;10.770;2023-12-20T04:28:07;1.77;;;0.55;;
7703;SDS011;3894;49.700;10.770;2023-12-20T04:30:33;2.78;;;0.60;;
7703;SDS011;3894;49.700;10.770;2023-12-20T04:32:58;1.98;;;0.45;;
7703;SDS011;3894;49.700;10.770;2023-12-20T04:35:24;2.90;;;0.50;;
7703;SDS011;3894;49.700;10.770;2023-12-20T04:37:50;2.63;;;0.93;;
7703;SDS011;3894;49.700;10.770;2023-12-20T04:40:15;2.45;;;0.30;;
7703;SDS011;3894;49.700;10.770;2023-12-20T04:42:41;2.08;;;0.50;;
7703;SDS011;3894;49.700;10.770;2023-12-20T04:45:06;2.28;;;0.50;;
7703;SDS011;3894;49.700;10.770;2023-12-20T04:47:34;2.13;;;0.40;;
7703;SDS011;3894;49.700;10.770;2023-12-20T04:49:59;2.50;;;0.55;;
7703;SDS011;3894;49.700;10.770;2023-12-20T04:52:25;2.88;;;0.73;;
7703;SDS011;3894;49.700;10.770;2023-12-20T04:54:51;2.22;;;0.70;;
7703;SDS011;3894;49.700;10.770;2023-12-20T04:57:17;2.50;;;0.50;;
7703;SDS011;3894;49.700;10.770;2023-12-20T04:59:42;3.00;;;0.68;;
7703;SDS011;3894;49.700;10.770;2023-12-20T05:02:08;4.93;;;0.70;;
7703;SDS011;3894;49.700;10.770;2023-12-20T05:04:36;2.90;;;0.73;;
7703;SDS011;3894;49.700;10.770;2023-12-20T05:07:02;2.15;;;0.43;;
7703;SDS011;3894;49.700;10.770;2023-12-20T05:09:29;3.00;;;0.50;;
7703;SDS011;3894;49.700;10.770;2023-12-20T05:11:55;2.92;;;1.25;;
7703;SDS011;3894;49.700;10.770;2023-12-20T05:14:20;2.10;;;0.70;;
7703;SDS011;3894;49.700;10.770;2023-12-20T05:16:46;4.30;;;0.80;;
7703;SDS011;3894;49.700;10.770;2023-12-20T05:19:11;4.82;;;1.15;;
7703;SDS011;3894;49.700;10.770;2023-12-20T05:21:37;2.40;;;0.50;;
7703;SDS011;3894;49.700;10.770;2023-12-20T05:24:05;2.75;;;0.68;;
7703;SDS011;3894;49.700;10.770;2023-12-20T05:26:30;2.40;;;0.57;;
7703;SDS011;3894;49.700;10.770;2023-12-20T05:28:56;2.40;;;0.60;;
7703;SDS011;3894;49.700;10.770;2023-12-20T05:31:21;2.33;;;0.70;;
7703;SDS011;3894;49.700;10.770;2023-12-20T05:33:47;3.13;;;0.70;;
7703;SDS011;3894;49.700;10.770;2023-12-20T05:36:12;3.28;;;0.60;;
7703;SDS011;3894;49.700;10.770;2023-12-20T05:38:40;3.25;;;0.93;;
7703;SDS011;3894;49.700;10.770;2023-12-20T05:41:06;2.85;;;0.57;;
7703;SDS011;3894;49.700;10.770;2023-12-20T05:43:32;2.15;;;0.35;;
7703;SDS011;3894;49.700;10.770;2023-12-20T05:45:57;3.20;;;0.52;;
7703;SDS011;3894;49.700;10.770;2023-12-20T05:48:23;2.95;;;0.55;;
7703;SDS011;3894;49.700;10.770;2023-12-20T05:50:48;2.72;;;0.63;;
7703;SDS011;3894;49.700;10.770;2023-12-20T05:53:14;3.75;;;0.88;;
7703;SDS011;3894;49.700;10.770;2023-12-20T05:55:39;3.67;;;0.80;;
7703;SDS011;3894;49.700;10.770;2023-12-20T05:58:05;4.40;;;0.90;;
7703;SDS011;3894;49.700;10.770;2023-12-20T06:00:31;3.40;;;0.70;;
7703;SDS011;3894;49.700;10.770;2023-12-20T06:02:56;4.35;;;1.48;;
7703;SDS011;3894;49.700;10.770;2023-12-20T06:05:22;3.38;;;0.80;;
7703;SDS011;3894;49.700;10.770;2023-12-20T06:07:47;4.28;;;1.42;;
7703;SDS011;3894;49.700;10.770;2023-12-20T06:10:15;4.35;;;1.35;;
7703;SDS011;3894;49.700;10.770;2023-12-20T06:12:41;4.30;;;1.55;;
7703;SDS011;3894;49.700;10.770;2023-12-20T06:15:07;4.00;;;1.13;;
7703;SDS011;3894;49.700;10.770;2023-12-20T06:17:33;4.88;;;1.90;;
7703;SDS011;3894;49.700;10.770;2023-12-20T06:20:00;4.75;;;1.50;;
7703;SDS011;3894;49.700;10.770;2023-12-20T06:22:26;4.72;;;1.67;;
7703;SDS011;3894;49.700;10.770;2023-12-20T06:24:52;4.55;;;1.20;;
7703;SDS011;3894;49.700;10.770;2023-12-20T06:27:18;4.05;;;1.38;;
7703;SDS011;3894;49.700;10.770;2023-12-20T06:29:43;4.68;;;1.33;;
7703;SDS011;3894;49.700;10.770;2023-12-20T06:32:10;3.13;;;0.90;;
7703;SDS011;3894;49.700;10.770;2023-12-20T06:34:35;3.53;;;1.17;;
7703;SDS011;3894;49.700;10.770;2023-12-20T06:37:01;4.80;;;1.48;;
7703;SDS011;3894;49.700;10.770;2023-12-20T06:39:27;4.80;;;1.48;;
7703;SDS011;3894;49.700;10.770;2023-12-20T06:41:53;3.95;;;0.75;;
7703;SDS011;3894;49.700;10.770;2023-12-20T06:44:18;3.63;;;1.05;;
7703;SDS011;3894;49.700;10.770;2023-12-20T06:46:44;4.93;;;1.50;;
7703;SDS011;3894;49.700;10.770;2023-12-20T06:49:09;4.70;;;1.30;;
7703;SDS011;3894;49.700;10.770;2023-12-20T06:51:35;3.70;;;1.00;;
7703;SDS011;3894;49.700;10.770;2023-12-20T06:54:02;4.38;;;1.75;;
7703;SDS011;3894;49.700;10.770;2023-12-20T06:56:28;4.10;;;1.88;;
7703;SDS011;3894;49.700;10.770;2023-12-20T06:58:54;5.28;;;1.83;;
7703;SDS011;3894;49.700;10.770;2023-12-20T07:01:19;7.22;;;2.20;;
7703;SDS011;3894;49.700;10.770;2023-12-20T07:03:45;4.10;;;1.88;;
7703;SDS011;3894;49.700;10.770;2023-12-20T07:06:12;5.45;;;2.38;;
7703;SDS011;3894;49.700;10.770;2023-12-20T07:11:06;6.50;;;2.40;;
7703;SDS011;3894;49.700;10.770;2023-12-20T07:13:31;5.10;;;2.03;;
7703;SDS011;3894;49.700;10.770;2023-12-20T07:15:57;5.07;;;2.10;;
7703;SDS011;3894;49.700;10.770;2023-12-20T07:18:23;5.55;;;2.10;;
7703;SDS011;3894;49.700;10.770;2023-12-20T07:20:48;5.63;;;2.92;;
7703;SDS011;3894;49.700;10.770;2023-12-20T07:23:14;5.75;;;2.45;;
7703;SDS011;3894;49.700;10.770;2023-12-20T07:25:40;5.65;;;2.90;;
7703;SDS011;3894;49.700;10.770;2023-12-20T07:28:07;5.13;;;2.03;;
7703;SDS011;3894;49.700;10.770;2023-12-20T07:30:32;6.53;;;2.60;;
7703;SDS011;3894;49.700;10.770;2023-12-20T07:32:58;5.70;;;2.25;;
7703;SDS011;3894;49.700;10.770;2023-12-20T07:35:24;5.22;;;2.03;;
7703;SDS011;3894;49.700;10.770;2023-12-20T07:37:50;4.90;;;2.15;;
7703;SDS011;3894;49.700;10.770;2023-12-20T07:40:15;6.10;;;1.75;;
7703;SDS011;3894;49.700;10.770;2023-12-20T07:42:44;6.55;;;2.78;;
7703;SDS011;3894;49.700;10.770;2023-12-20T07:45:10;5.88;;;2.50;;
7703;SDS011;3894;49.700;10.770;2023-12-20T07:47:36;5.57;;;2.75;;
7703;SDS011;3894;49.700;10.770;2023-12-20T07:50:02;7.70;;;3.33;;
7703;SDS011;3894;49.700;10.770;2023-12-20T07:52:29;5.40;;;2.42;;
7703;SDS011;3894;49.700;10.770;2023-12-20T07:54:54;5.55;;;2.33;;
7703;SDS011;3894;49.700;10.770;2023-12-20T07:57:20;5.85;;;2.55;;
7703;SDS011;3894;49.700;10.770;2023-12-20T07:59:46;6.90;;;3.13;;
7703;SDS011;3894;49.700;10.770;2023-12-20T08:02:12;6.20;;;2.80;;
7703;SDS011;3894;49.700;10.770;2023-12-20T08:04:38;6.85;;;2.65;;
7703;SDS011;3894;49.700;10.770;2023-12-20T08:07:04;7.10;;;3.40;;
7703;SDS011;3894;49.700;10.770;2023-12-20T08:09:29;7.47;;;3.08;;
7703;SDS011;3894;49.700;10.770;2023-12-20T08:11:55;8.40;;;3.35;;
7703;SDS011;3894;49.700;10.770;2023-12-20T08:14:21;7.68;;;3.30;;
7703;SDS011;3894;49.700;10.770;2023-12-20T08:16:47;6.32;;;2.85;;
7703;SDS011;3894;49.700;10.770;2023-12-20T08:19:12;6.65;;;3.20;;
7703;SDS011;3894;49.700;10.770;2023-12-20T08:21:38;7.18;;;2.95;;
7703;SDS011;3894;49.700;10.770;2023-12-20T08:24:04;6.28;;;2.55;;
7703;SDS011;3894;49.700;10.770;2023-12-20T08:26:30;8.48;;;2.95;;
7703;SDS011;3894;49.700;10.770;2023-12-20T08:28:55;6.65;;;2.70;;
7703;SDS011;3894;49.700;10.770;2023-12-20T08:31:21;7.65;;;4.10;;
7703;SDS011;3894;49.700;10.770;2023-12-20T08:33:47;6.88;;;2.80;;
7703;SDS011;3894;49.700;10.770;2023-12-20T08:36:13;5.78;;;2.40;;
7703;SDS011;3894;49.700;10.770;2023-12-20T08:38:39;6.78;;;2.63;;
7703;SDS011;3894;49.700;10.770;2023-12-20T08:41:06;6.05;;;2.53;;
7703;SDS011;3894;49.700;10.770;2023-12-20T08:43:31;7.72;;;2.30;;
7703;SDS011;3894;49.700;10.770;2023-12-20T08:45:58;9.05;;;2.85;;
7703;SDS011;3894;49.700;10.770;2023-12-20T08:48:24;7.10;;;2.63;;
7703;SDS011;3894;49.700;10.770;2023-12-20T08:50:50;4.30;;;2.42;;
7703;SDS011;3894;49.700;10.770;2023-12-20T08:53:17;6.05;;;3.20;;
7703;SDS011;3894;49.700;10.770;2023-12-20T08:55:43;7.05;;;2.70;;
7703;SDS011;3894;49.700;10.770;2023-12-20T08:58:09;6.82;;;2.10;;
7703;SDS011;3894;49.700;10.770;2023-12-20T09:00:35;5.45;;;1.85;;
7703;SDS011;3894;49.700;10.770;2023-12-20T09:03:01;4.88;;;1.63;;
7703;SDS011;3894;49.700;10.770;2023-12-20T09:05:27;5.72;;;1.98;;
7703;SDS011;3894;49.700;10.770;2023-12-20T09:07:53;5.45;;;1.75;;
7703;SDS011;3894;49.700;10.770;2023-12-20T09:10:19;4.70;;;1.85;;
7703;SDS011;3894;49.700;10.770;2023-12-20T09:12:56;4.25;;;1.92;;
7703;SDS011;3894;49.700;10.770;2023-12-20T09:15:25;5.10;;;2.33;;
7703;SDS011;3894;49.700;10.770;2023-12-20T09:17:52;5.28;;;2.20;;
7703;SDS011;3894;49.700;10.770;2023-12-20T09:20:18;8.23;;;2.10;;
7703;SDS011;3894;49.700;10.770;2023-12-20T09:22:43;5.05;;;1.70;;
7703;SDS011;3894;49.700;10.770;2023-12-20T09:25:11;6.63;;;1.77;;
7703;SDS011;3894;49.700;10.770;2023-12-20T09:27:37;4.75;;;1.23;;
7703;SDS011;3894;49.700;10.770;2023-12-20T09:30:03;6.70;;;1.50;;
7703;SDS011;3894;49.700;10.770;2023-12-20T09:32:30;8.25;;;2.45;;
7703;SDS011;3894;49.700;10.770;2023-12-20T09:34:56;6.32;;;1.77;;
7703;SDS011;3894;49.700;10.770;2023-12-20T09:37:22;4.63;;;1.83;;
7703;SDS011;3894;49.700;10.770;2023-12-20T09:39:50;5.75;;;1.67;;
7703;SDS011;3894;49.700;10.770;2023-12-20T09:42:17;5.97;;;1.70;;
7703;SDS011;3894;49.700;10.770;2023-12-20T09:44:53;5.68;;;1.90;;
7703;SDS011;3894;49.700;10.770;2023-12-20T09:47:19;6.60;;;1.33;;
7703;SDS011;3894;49.700;10.770;2023-12-20T09:49:49;5.28;;;1.90;;
7703;SDS011;3894;49.700;10.770;2023-12-20T09:52:15;5.07;;;1.52;;
7703;SDS011;3894;49.700;10.770;2023-12-20T09:54:44;5.05;;;1.55;;
7703;SDS011;3894;49.700;10.770;2023-12-20T09:57:12;3.20;;;0.73;;
7703;SDS011;3894;49.700;10.770;2023-12-20T09:59:37;7.82;;;1.30;;
7703;SDS011;3894;49.700;10.770;2023-12-20T10:02:04;8.52;;;1.20;;
7703;SDS011;3894;49.700;10.770;2023-12-20T10:04:35;3.17;;;0.70;;
7703;SDS011;3894;49.700;10.770;2023-12-20T10:07:02;6.28;;;1.85;;
7703;SDS011;3894;49.700;10.770;2023-12-20T10:09:30;5.97;;;1.40;;
7703;SDS011;3894;49.700;10.770;2023-12-20T10:11:57;3.95;;;0.90;;
7703;SDS011;3894;49.700;10.770;2023-12-20T10:14:23;5.50;;;1.05;;
7703;SDS011;3894;49.700;10.770;2023-12-20T10:16:49;3.63;;;0.70;;
7703;SDS011;3894;49.700;10.770;2023-12-20T10:19:16;5.40;;;1.55;;
7703;SDS011;3894;49.700;10.770;2023-12-20T10:21:43;3.40;;;0.70;;
7703;SDS011;3894;49.700;10.770;2023-12-20T10:24:09;3.33;;;0.93;;
7703;SDS011;3894;49.700;10.770;2023-12-20T10:26:42;5.70;;;1.10;;
7703;SDS011;3894;49.700;10.770;2023-12-20T10:29:08;7.55;;;1.95;;
7703;SDS011;3894;49.700;10.770;2023-12-20T10:31:36;3.75;;;1.17;;
7703;SDS011;3894;49.700;10.770;2023-12-20T10:34:03;5.35;;;0.93;;
7703;SDS011;3894;49.700;10.770;2023-12-20T10:36:30;4.68;;;1.20;;
7703;SDS011;3894;49.700;10.770;2023-12-20T10:38:57;3.70;;;1.15;;
7703;SDS011;3894;49.700;10.770;2023-12-20T10:41:33;5.45;;;0.80;;
7703;SDS011;3894;49.700;10.770;2023-12-20T10:43:59;5.03;;;0.93;;
7703;SDS011;3894;49.700;10.770;2023-12-20T10:46:27;5.90;;;1.27;;
7703;SDS011;3894;49.700;10.770;2023-12-20T10:48:55;4.25;;;1.23;;
7703;SDS011;3894;49.700;10.770;2023-12-20T10:51:22;4.85;;;1.05;;
7703;SDS011;3894;49.700;10.770;2023-12-20T10:53:49;4.13;;;1.45;;
7703;SDS011;3894;49.700;10.770;2023-12-20T10:56:16;7.57;;;1.30;;
7703;SDS011;3894;49.700;10.770;2023-12-20T10:58:48;3.90;;;1.63;;
7703;SDS011;3894;49.700;10.770;2023-12-20T11:01:15;4.05;;;1.25;;
7703;SDS011;3894;49.700;10.770;2023-12-20T11:03:52;6.93;;;1.63;;
7703;SDS011;3894;49.700;10.770;2023-12-20T11:06:32;7.45;;;2.55;;
7703;SDS011;3894;49.700;10.770;2023-12-20T11:12:08;6.72;;;1.35;;
7703;SDS011;3894;49.700;10.770;2023-12-20T11:17:11;9.18;;;2.85;;
7703;SDS011;3894;49.700;10.770;2023-12-20T11:22:26;7.20;;;1.40;;
7703;SDS011;3894;49.700;10.770;2023-12-20T11:24:54;8.60;;;2.83;;
7703;SDS011;3894;49.700;10.770;2023-12-20T11:27:27;5.55;;;2.10;;
7703;SDS011;3894;49.700;10.770;2023-12-20T11:29:53;7.47;;;3.53;;
7703;SDS011;3894;49.700;10.770;2023-12-20T11:37:36;8.25;;;2.13;;
7703;SDS011;3894;49.700;10.770;2023-12-20T11:42:33;3.63;;;1.00;;
7703;SDS011;3894;49.700;10.770;2023-12-20T11:45:02;7.20;;;1.45;;
7703;SDS011;3894;49.700;10.770;2023-12-20T11:47:29;11.30;;;1.85;;
7703;SDS011;3894;49.700;10.770;2023-12-20T11:49:56;3.95;;;0.50;;
7703;SDS011;3894;49.700;10.770;2023-12-20T11:52:22;4.10;;;0.98;;
7703;SDS011;3894;49.700;10.770;2023-12-20T11:54:47;5.60;;;1.45;;
7703;SDS011;3894;49.700;10.770;2023-12-20T11:57:13;7.28;;;1.42;;
7703;SDS011;3894;49.700;10.770;2023-12-20T11:59:39;5.20;;;1.27;;
7703;SDS011;3894;49.700;10.770;2023-12-20T12:02:05;8.20;;;1.15;;
7703;SDS011;3894;49.700;10.770;2023-12-20T12:04:31;6.47;;;1.83;;
7703;SDS011;3894;49.700;10.770;2023-12-20T12:06:56;5.97;;;1.42;;
7703;SDS011;3894;49.700;10.770;2023-12-20T12:09:22;4.63;;;1.33;;
7703;SDS011;3894;49.700;10.770;2023-12-20T12:11:47;5.03;;;1.52;;
7703;SDS011;3894;49.700;10.770;2023-12-20T12:14:13;4.13;;;1.52;;
7703;SDS011;3894;49.700;10.770;2023-12-20T12:16:41;4.30;;;1.48;;
7703;SDS011;3894;49.700;10.770;2023-12-20T12:19:07;5.00;;;2.28;;
7703;SDS011;3894;49.700;10.770;2023-12-20T12:21:32;4.88;;;1.23;;
7703;SDS011;3894;49.700;10.770;2023-12-20T12:24:07;6.82;;;1.42;;
7703;SDS011;3894;49.700;10.770;2023-12-20T12:26:34;5.00;;;1.50;;
7703;SDS011;3894;49.700;10.770;2023-12-20T12:28:59;4.72;;;1.15;;
7703;SDS011;3894;49.700;10.770;2023-12-20T12:31:25;5.28;;;2.35;;
7703;SDS011;3894;49.700;10.770;2023-12-20T12:33:53;5.43;;;1.60;;
7703;SDS011;3894;49.700;10.770;2023-12-20T12:36:18;4.32;;;1.38;;
7703;SDS011;3894;49.700;10.770;2023-12-20T12:38:44;4.60;;;1.63;;
7703;SDS011;3894;49.700;10.770;2023-12-20T12:41:12;5.63;;;2.17;;
7703;SDS011;3894;49.700;10.770;2023-12-20T12:43:38;6.63;;;2.15;;
7703;SDS011;3894;49.700;10.770;2023-12-20T12:46:03;5.68;;;1.58;;
7703;SDS011;3894;49.700;10.770;2023-12-20T12:48:29;6.03;;;1.42;;
7703;SDS011;3894;49.700;10.770;2023-12-20T12:50:55;4.93;;;1.20;;
7703;SDS011;3894;49.700;10.770;2023-12-20T12:53:25;4.63;;;1.42;;
7703;SDS011;3894;49.700;10.770;2023-12-20T12:55:52;3.83;;;1.20;;
7703;SDS011;3894;49.700;10.770;2023-12-20T12:58:19;5.40;;;2.13;;
7703;SDS011;3894;49.700;10.770;2023-12-20T13:00:45;5.10;;;1.10;;
7703;SDS011;3894;49.700;10.770;2023-12-20T13:03:11;3.95;;;1.20;;
7703;SDS011;3894;49.700;10.770;2023-12-20T13:05:37;4.80;;;0.90;;
7703;SDS011;3894;49.700;10.770;2023-12-20T13:08:03;4.43;;;1.08;;
7703;SDS011;3894;49.700;10.770;2023-12-20T13:10:28;10.00;;;4.35;;
7703;SDS011;3894;49.700;10.770;2023-12-20T13:12:54;7.18;;;3.50;;
7703;SDS011;3894;49.700;10.770;2023-12-20T13:15:19;6.47;;;4.15;;
7703;SDS011;3894;49.700;10.770;2023-12-20T13:17:46;6.30;;;2.20;;
7703;SDS011;3894;49.700;10.770;2023-12-20T13:20:12;5.93;;;2.10;;
7703;SDS011;3894;49.700;10.770;2023-12-20T13:22:37;7.57;;;3.40;;
7703;SDS011;3894;49.700;10.770;2023-12-20T13:25:03;6.35;;;2.45;;
7703;SDS011;3894;49.700;10.770;2023-12-20T13:27:30;5.32;;;1.95;;
7703;SDS011;3894;49.700;10.770;2023-12-20T13:29:55;4.68;;;2.10;;
7703;SDS011;3894;49.700;10.770;2023-12-20T13:32:21;7.50;;;2.53;;
7703;SDS011;3894;49.700;10.770;2023-12-20T13:34:47;6.13;;;2.50;;
7703;SDS011;3894;49.700;10.770;2023-12-20T13:37:13;7.07;;;2.55;;
7703;SDS011;3894;49.700;10.770;2023-12-20T13:39:39;6.57;;;2.38;;
7703;SDS011;3894;49.700;10.770;2023-12-20T13:42:06;6.90;;;2.03;;
7703;SDS011;3894;49.700;10.770;2023-12-20T13:44:31;5.03;;;1.48;;
7703;SDS011;3894;49.700;10.770;2023-12-20T13:46:57;5.45;;;1.45;;
7703;SDS011;3894;49.700;10.770;2023-12-20T13:49:22;4.97;;;1.38;;
7703;SDS011;3894;49.700;10.770;2023-12-20T13:54:16;5.82;;;1.58;;
7703;SDS011;3894;49.700;10.770;2023-12-20T13:56:45;6.68;;;1.90;;
7703;SDS011;3894;49.700;10.770;2023-12-20T13:59:10;6.68;;;1.50;;
7703;SDS011;3894;49.700;10.770;2023-12-20T14:01:37;5.80;;;1.45;;
7703;SDS011;3894;49.700;10.770;2023-12-20T14:04:03;4.80;;;1.17;;
7703;SDS011;3894;49.700;10.770;2023-12-20T14:06:28;5.22;;;1.40;;
7703;SDS011;3894;49.700;10.770;2023-12-20T14:08:54;6.40;;;1.42;;
7703;SDS011;3894;49.700;10.770;2023-12-20T14:11:20;6.00;;;1.38;;
7703;SDS011;3894;49.700;10.770;2023-12-20T14:13:46;11.98;;;6.05;;
7703;SDS011;3894;49.700;10.770;2023-12-20T14:16:11;7.63;;;4.07;;
7703;SDS011;3894;49.700;10.770;2023-12-20T14:18:37;11.50;;;3.45;;
7703;SDS011;3894;49.700;10.770;2023-12-20T14:21:05;4.20;;;1.92;;
7703;SDS011;3894;49.700;10.770;2023-12-20T14:23:31;13.75;;;2.72;;
7703;SDS011;3894;49.700;10.770;2023-12-20T14:25:58;4.75;;;1.90;;
7703;SDS011;3894;49.700;10.770;2023-12-20T14:28:24;8.38;;;3.47;;
7703;SDS011;3894;49.700;10.770;2023-12-20T14:30:50;8.55;;;2.13;;
7703;SDS011;3894;49.700;10.770;2023-12-20T14:33:16;5.28;;;1.00;;
7703;SDS011;3894;49.700;10.770;2023-12-20T14:35:41;8.40;;;2.67;;
7703;SDS011;3894;49.700;10.770;2023-12-20T14:38:07;6.68;;;2.45;;
7703;SDS011;3894;49.700;10.770;2023-12-20T14:40:33;5.57;;;1.65;;
7703;SDS011;3894;49.700;10.770;2023-12-20T14:43:00;7.72;;;2.05;;
7703;SDS011;3894;49.700;10.770;2023-12-20T14:45:26;9.40;;;3.60;;
7703;SDS011;3894;49.700;10.770;2023-12-20T14:47:52;8.80;;;3.72;;
7703;SDS011;3894;49.700;10.770;2023-12-20T14:50:18;7.63;;;2.55;;
7703;SDS011;3894;49.700;10.770;2023-12-20T14:52:43;7.47;;;2.70;;
7703;SDS011;3894;49.700;10.770;2023-12-20T14:55:10;6.60;;;3.65;;
7703;SDS011;3894;49.700;10.770;2023-12-20T14:57:36;7.68;;;3.60;;
7703;SDS011;3894;49.700;10.770;2023-12-20T15:00:02;5.28;;;2.22;;
7703;SDS011;3894;49.700;10.770;2023-12-20T15:02:27;5.07;;;1.83;;
7703;SDS011;3894;49.700;10.770;2023-12-20T15:04:53;8.07;;;2.78;;
7703;SDS011;3894;49.700;10.770;2023-12-20T15:07:19;4.40;;;1.75;;
7703;SDS011;3894;49.700;10.770;2023-12-20T15:09:45;6.65;;;2.38;;
7703;SDS011;3894;49.700;10.770;2023-12-20T15:12:12;7.45;;;2.90;;
7703;SDS011;3894;49.700;10.770;2023-12-20T15:14:38;8.93;;;4.72;;